Time;durP1;ratioP1;P1;durP2;ratioP2;P2;SDS_P1;SDS_P2;PMS_P1;PMS_P2;Temp;Humidity;BMP_temperature;BMP_pressure;BME280_temperature;BME280_humidity;BME280_pressure;Samples;Min_cycle;Max_cycle;Signal;HPM_P1;HPM_P2
2022/02/06 00:00:19;;;;;;;1.07;0.70;;;5.80;99.90;;;;;;5045507;28;20197;-78
2022/02/06 00:02:51;;;;;;;1.03;0.67;;;6.00;99.90;;;;;;5064515;28;20879;-80
2022/02/06 00:05:19;;;;;;;0.80;0.60;;;6.10;99.90;;;;;;5076339;28;20535;-79
2022/02/06 00:07:48;;;;;;;0.93;0.80;;;6.00;99.90;;;;;;5047557;28;20941;-80
2022/02/06 00:10:17;;;;;;;3.23;0.87;;;6.00;99.90;;;;;;5044494;28;20530;-79
2022/02/06 00:12:46;;;;;;;2.00;0.70;;;5.90;99.90;;;;;;5056765;28;20819;-80
2022/02/06 00:15:14;;;;;;;3.05;0.80;;;5.90;99.90;;;;;;5046139;28;20482;-79
2022/02/06 00:17:43;;;;;;;2.50;0.93;;;5.90;99.90;;;;;;5040769;28;20276;-79
2022/02/06 00:20:14;;;;;;;0.80;0.80;;;5.70;99.90;;;;;;5048144;28;20632;-80
2022/02/06 00:22:47;;;;;;;0.80;0.70;;;5.70;99.90;;;;;;5045276;28;21011;-79
2022/02/06 00:25:23;;;;;;;1.90;1.33;;;6.00;99.90;;;;;;5037950;28;20466;-79
2022/02/06 00:28:11;;;;;;;1.37;1.00;;;6.00;99.90;;;;;;5032083;28;20494;-79
2022/02/06 00:30:44;;;;;;;2.47;1.00;;;5.80;99.90;;;;;;5024946;28;20455;-81
2022/02/06 00:33:19;;;;;;;4.83;0.90;;;5.60;99.90;;;;;;5028596;28;21189;-78
2022/02/06 00:36:01;;;;;;;4.30;1.33;;;5.30;99.90;;;;;;5029867;28;20926;-80
2022/02/06 00:38:35;;;;;;;1.27;0.70;;;5.40;99.90;;;;;;5032354;28;20827;-79
2022/02/06 00:41:14;;;;;;;2.40;0.80;;;5.70;99.90;;;;;;5024674;28;21290;-80
2022/02/06 00:43:43;;;;;;;1.63;0.80;;;5.60;99.90;;;;;;5031571;28;20544;-80
2022/02/06 00:46:13;;;;;;;3.20;0.80;;;5.60;99.90;;;;;;5027733;28;20233;-79
2022/02/06 00:48:46;;;;;;;10.27;0.88;;;5.50;99.90;;;;;;5030625;28;20344;-80
2022/02/06 00:51:22;;;;;;;2.40;0.90;;;5.60;99.90;;;;;;5058011;28;20280;-78
2022/02/06 00:53:50;;;;;;;2.57;1.00;;;5.50;99.90;;;;;;5031763;28;20480;-79
2022/02/06 00:56:19;;;;;;;2.50;1.00;;;5.60;99.90;;;;;;5040288;28;20471;-78
2022/02/06 00:58:47;;;;;;;1.30;0.98;;;5.70;99.90;;;;;;5030308;28;20626;-79
2022/02/06 01:01:16;;;;;;;4.33;0.77;;;5.90;99.90;;;;;;5028105;28;20206;-78
2022/02/06 01:03:44;;;;;;;0.83;0.83;;;5.60;99.90;;;;;;5059869;28;20486;-78
2022/02/06 01:06:13;;;;;;;0.70;0.68;;;5.60;99.90;;;;;;5031934;28;20514;-79
2022/02/06 01:08:43;;;;;;;1.67;0.80;;;5.60;99.90;;;;;;5026407;28;20226;-78
2022/02/06 01:11:13;;;;;;;2.35;1.00;;;5.80;99.90;;;;;;5025898;28;20826;-78
2022/02/06 01:13:52;;;;;;;2.30;0.63;;;5.70;99.90;;;;;;5027395;28;20225;-77
2022/02/06 01:16:25;;;;;;;1.53;0.70;;;5.70;99.90;;;;;;5024302;28;20468;-78
2022/02/06 01:18:58;;;;;;;0.95;0.80;;;5.60;99.90;;;;;;5029123;28;21083;-78
2022/02/06 01:21:39;;;;;;;1.38;0.80;;;5.80;99.90;;;;;;5030798;28;20277;-79
2022/02/06 01:24:14;;;;;;;2.63;0.80;;;6.00;99.90;;;;;;5039987;28;20207;-78
2022/02/06 01:26:46;;;;;;;3.33;1.17;;;6.00;99.90;;;;;;5030601;28;20203;-78
2022/02/06 01:29:21;;;;;;;1.35;1.00;;;6.00;99.90;;;;;;5032553;28;21003;-78
2022/02/06 01:31:58;;;;;;;2.17;0.90;;;6.10;99.90;;;;;;5018049;28;20202;-79
2022/02/06 01:34:34;;;;;;;0.90;0.63;;;6.10;99.90;;;;;;5028420;28;20827;-79
2022/02/06 01:37:13;;;;;;;1.70;1.10;;;6.10;99.90;;;;;;5026744;28;20479;-78
2022/02/06 01:40:07;;;;;;;2.70;1.10;;;5.90;99.90;;;;;;5023388;28;20744;-79
2022/02/06 01:42:41;;;;;;;3.60;0.70;;;5.70;99.90;;;;;;5025360;28;20531;-78
2022/02/06 02:02:11;;;;;;;1.05;0.90;;;5.90;99.90;;;;;;5031472;28;20601;-79
2022/02/06 02:04:51;;;;;;;2.08;0.90;;;6.10;99.90;;;;;;5041292;28;20198;-78
2022/02/06 02:07:55;;;;;;;0.75;0.75;;;6.00;99.90;;;;;;5023577;28;20296;-78
2022/02/06 02:10:49;;;;;;;1.42;0.73;;;5.90;99.90;;;;;;5031533;28;20213;-79
2022/02/06 02:13:42;;;;;;;0.70;0.70;;;5.90;99.90;;;;;;5031987;28;20241;-79
2022/02/06 02:27:47;;;;;;;2.37;1.00;;;6.00;99.90;;;;;;5014115;28;20221;-79
2022/02/06 02:47:10;;;;;;;10.67;1.20;;;6.00;99.90;;;;;;5029301;28;20453;-80
2022/02/06 02:49:40;;;;;;;6.63;0.88;;;5.90;99.90;;;;;;5027736;28;21072;-79
2022/02/06 02:52:16;;;;;;;0.60;0.60;;;5.90;99.90;;;;;;5029868;28;20198;-79
2022/02/06 02:54:50;;;;;;;0.80;0.67;;;6.00;99.90;;;;;;5031694;28;20244;-79
2022/02/06 02:57:24;;;;;;;3.20;0.70;;;5.90;99.90;;;;;;5035192;28;20473;-79
2022/02/06 03:00:04;;;;;;;2.00;1.00;;;5.90;99.90;;;;;;5036471;28;20477;-79
2022/02/06 03:02:32;;;;;;;1.40;0.65;;;5.80;99.90;;;;;;5035116;28;21026;-81
2022/02/06 03:05:02;;;;;;;1.90;0.80;;;5.80;99.90;;;;;;5029449;28;20271;-81
2022/02/06 03:07:31;;;;;;;1.80;0.90;;;6.00;99.90;;;;;;5037586;28;20496;-80
2022/02/06 03:10:01;;;;;;;2.72;0.93;;;5.90;99.90;;;;;;5029688;28;20630;-81
2022/02/06 03:12:32;;;;;;;4.60;1.20;;;5.90;99.90;;;;;;5039264;28;20721;-80
2022/02/06 03:15:08;;;;;;;2.42;0.70;;;5.70;99.90;;;;;;5026427;28;20508;-80
2022/02/06 03:17:43;;;;;;;0.60;0.60;;;5.70;99.90;;;;;;5033516;28;20259;-80
2022/02/06 03:20:18;;;;;;;2.58;0.80;;;5.60;99.90;;;;;;5038061;28;20197;-80
2022/02/06 03:22:50;;;;;;;2.45;0.70;;;5.60;99.90;;;;;;5032234;28;20220;-80
2022/02/06 03:25:22;;;;;;;0.80;0.80;;;5.70;99.90;;;;;;5036541;28;20233;-79
2022/02/06 03:27:52;;;;;;;2.00;0.70;;;5.80;99.90;;;;;;5064124;28;20776;-79
2022/02/06 03:30:21;;;;;;;0.60;0.60;;;5.60;99.90;;;;;;5029829;28;20967;-80
2022/02/06 03:32:52;;;;;;;4.13;0.93;;;5.70;99.90;;;;;;5031657;28;20459;-80
2022/02/06 03:35:20;;;;;;;1.23;0.67;;;5.70;99.90;;;;;;5030916;28;21087;-80
2022/02/06 03:37:49;;;;;;;0.87;0.70;;;5.60;99.90;;;;;;5065095;28;20688;-79
2022/02/06 03:40:22;;;;;;;1.77;0.70;;;5.70;99.90;;;;;;5066009;28;20527;-79
2022/02/06 03:43:04;;;;;;;1.17;0.77;;;5.70;99.90;;;;;;5066690;28;20455;-80
2022/02/06 03:45:41;;;;;;;0.87;0.60;;;5.90;99.90;;;;;;5028283;28;20255;-80
2022/02/06 03:48:14;;;;;;;2.05;0.70;;;6.00;99.90;;;;;;5032158;28;20464;-80
2022/02/06 03:50:48;;;;;;;3.00;0.87;;;6.10;99.90;;;;;;5027811;28;20213;-79
2022/02/06 03:53:20;;;;;;;1.75;0.60;;;6.00;99.90;;;;;;5028414;28;20469;-79
2022/02/06 03:55:50;;;;;;;1.15;0.70;;;6.20;99.90;;;;;;5032750;28;20233;-80
2022/02/06 03:58:20;;;;;;;1.03;0.57;;;6.10;99.90;;;;;;5027182;28;20588;-79
2022/02/06 04:00:49;;;;;;;0.70;0.60;;;6.20;99.90;;;;;;5032148;28;20550;-79
2022/02/06 04:03:18;;;;;;;1.47;0.77;;;6.40;99.90;;;;;;5029873;28;20440;-80
2022/02/06 04:05:49;;;;;;;0.68;0.68;;;6.30;99.90;;;;;;5037597;28;20547;-78
2022/02/06 04:08:19;;;;;;;4.30;0.80;;;6.30;99.90;;;;;;5034563;28;20228;-79
2022/02/06 04:10:50;;;;;;;3.73;0.70;;;6.10;99.90;;;;;;5034973;28;20456;-80
2022/02/06 04:13:23;;;;;;;6.03;0.67;;;6.10;99.90;;;;;;5030683;28;20634;-79
2022/02/06 04:15:58;;;;;;;1.83;0.67;;;6.30;99.90;;;;;;5025629;28;20465;-80
2022/02/06 04:18:35;;;;;;;0.63;0.63;;;6.00;99.90;;;;;;5028933;28;20467;-79
2022/02/06 04:21:04;;;;;;;0.60;0.60;;;6.00;99.90;;;;;;5039704;28;20454;-79
2022/02/06 04:23:32;;;;;;;0.70;0.57;;;6.10;99.90;;;;;;5034753;28;20464;-79
2022/02/06 04:26:01;;;;;;;0.57;0.57;;;6.20;99.90;;;;;;5037747;28;20448;-79
2022/02/06 04:28:35;;;;;;;1.00;0.77;;;6.30;99.90;;;;;;5031338;28;20571;-78
2022/02/06 04:31:04;;;;;;;1.70;0.80;;;6.20;99.90;;;;;;5029352;28;20445;-78
2022/02/06 04:33:32;;;;;;;2.47;0.83;;;6.40;99.90;;;;;;5034564;28;20651;-79
2022/02/06 04:36:05;;;;;;;1.10;0.60;;;6.30;99.90;;;;;;5028634;28;20486;-78
2022/02/06 04:38:48;;;;;;;1.27;0.87;;;6.10;99.90;;;;;;5030116;28;20476;-79
2022/02/06 05:15:10;;;;;;;4.10;0.70;;;5.90;99.90;;;;;;5049730;28;20553;-78
2022/02/06 05:18:08;;;;;;;0.85;0.63;;;5.80;99.90;;;;;;5048479;28;20458;-79
2022/02/06 05:29:05;;;;;;;0.65;0.50;;;5.70;99.90;;;;;;5053357;28;20475;-77
2022/02/06 05:31:43;;;;;;;2.58;0.85;;;5.70;99.90;;;;;;5049611;28;20326;-78
2022/02/06 05:34:12;;;;;;;2.33;0.70;;;5.70;99.90;;;;;;5044106;28;20198;-80
2022/02/06 05:36:41;;;;;;;1.27;0.80;;;5.80;99.90;;;;;;5051259;28;20460;-79
2022/02/06 05:39:10;;;;;;;0.60;0.60;;;5.80;99.90;;;;;;5051516;28;20508;-78
2022/02/06 05:41:38;;;;;;;3.55;0.80;;;6.20;99.90;;;;;;5055627;28;20542;-78
2022/02/06 05:44:07;;;;;;;4.47;1.00;;;5.70;99.90;;;;;;5050252;28;20311;-78
2022/02/06 05:46:35;;;;;;;1.20;0.80;;;5.80;99.90;;;;;;5046182;28;20660;-78
2022/02/06 05:49:04;;;;;;;5.67;0.90;;;5.90;99.90;;;;;;5051497;28;21019;-79
2022/02/06 05:51:33;;;;;;;0.70;0.70;;;5.90;99.90;;;;;;5049471;28;20463;-79
2022/02/06 05:54:02;;;;;;;0.60;0.60;;;6.20;99.90;;;;;;5047678;28;20460;-79
2022/02/06 05:56:30;;;;;;;1.47;0.90;;;6.30;99.90;;;;;;5035850;28;20472;-79
2022/02/06 05:58:59;;;;;;;1.10;0.70;;;6.10;99.90;;;;;;5041230;28;21070;-80
2022/02/06 06:01:28;;;;;;;2.13;0.73;;;6.20;99.90;;;;;;5028885;28;20818;-79
2022/02/06 06:03:56;;;;;;;1.00;0.70;;;6.00;99.90;;;;;;5038897;28;20911;-79
2022/02/06 06:06:26;;;;;;;0.60;0.60;;;6.10;99.90;;;;;;5030947;28;20467;-79
2022/02/06 06:08:55;;;;;;;3.03;0.80;;;6.20;99.90;;;;;;5034227;28;20564;-78
2022/02/06 06:11:24;;;;;;;2.70;0.70;;;6.30;99.90;;;;;;5036001;28;20460;-80
2022/02/06 06:13:52;;;;;;;1.00;0.90;;;6.50;99.90;;;;;;5039816;28;20856;-79
2022/02/06 06:16:20;;;;;;;3.43;0.90;;;6.10;99.90;;;;;;5033551;28;20476;-79
2022/02/06 06:18:49;;;;;;;0.73;0.70;;;6.00;99.90;;;;;;5040387;28;20566;-79
2022/02/06 06:21:19;;;;;;;1.93;0.90;;;5.60;99.90;;;;;;5038792;28;20455;-79
2022/02/06 06:23:47;;;;;;;4.07;1.00;;;5.60;99.90;;;;;;5070896;28;20486;-79
2022/02/06 06:26:18;;;;;;;0.90;0.80;;;5.60;99.90;;;;;;5034069;28;20461;-79
2022/02/06 06:28:46;;;;;;;1.00;0.80;;;5.60;99.90;;;;;;5044385;28;21032;-79
2022/02/06 06:31:15;;;;;;;2.83;0.80;;;5.50;99.90;;;;;;5031935;28;20467;-77
2022/02/06 06:33:43;;;;;;;2.28;0.80;;;5.50;99.90;;;;;;5034852;28;20468;-81
2022/02/06 06:36:12;;;;;;;0.90;0.70;;;5.60;99.90;;;;;;5029148;28;20205;-81
2022/02/06 06:38:40;;;;;;;0.80;0.80;;;5.80;99.90;;;;;;5029738;28;20511;-80
2022/02/06 06:41:08;;;;;;;1.47;1.37;;;5.80;99.90;;;;;;5030017;28;20303;-79
2022/02/06 06:43:38;;;;;;;2.78;1.10;;;5.70;99.90;;;;;;5038534;28;20519;-80
2022/02/06 06:46:06;;;;;;;1.13;0.70;;;5.70;99.90;;;;;;5035928;28;20699;-79
2022/02/06 06:48:37;;;;;;;0.70;0.70;;;5.70;99.90;;;;;;5041543;28;20530;-81
2022/02/06 06:51:06;;;;;;;0.90;0.63;;;5.70;99.90;;;;;;5038067;28;20567;-81
2022/02/06 06:53:37;;;;;;;1.40;0.83;;;5.80;99.90;;;;;;5040700;28;20456;-79
2022/02/06 06:56:12;;;;;;;1.05;0.73;;;5.90;99.90;;;;;;5037511;28;20459;-80
2022/02/06 06:58:45;;;;;;;2.70;1.23;;;5.90;99.90;;;;;;5038682;28;20225;-80
2022/02/06 07:01:42;;;;;;;1.30;0.70;;;5.90;99.90;;;;;;5037721;28;21024;-81
2022/02/06 07:04:09;;;;;;;1.45;0.70;;;5.90;99.90;;;;;;5034030;28;20537;-81
2022/02/06 07:06:56;;;;;;;1.23;0.80;;;6.00;99.90;;;;;;5031151;28;20197;-81
2022/02/06 07:09:24;;;;;;;1.33;0.70;;;6.20;99.90;;;;;;5030196;28;20226;-81
2022/02/06 07:11:52;;;;;;;7.13;0.80;;;5.90;99.90;;;;;;5034732;28;20466;-80
2022/02/06 07:14:22;;;;;;;3.23;1.00;;;6.00;99.90;;;;;;5024771;28;20873;-80
2022/02/06 07:16:50;;;;;;;1.40;0.90;;;5.90;99.90;;;;;;5045195;28;20461;-80
2022/02/06 07:19:19;;;;;;;1.63;0.77;;;6.00;99.90;;;;;;5028311;28;20474;-80
2022/02/06 07:21:47;;;;;;;5.33;0.70;;;5.90;99.90;;;;;;5035334;28;20484;-79
2022/02/06 07:24:17;;;;;;;3.93;1.00;;;6.10;99.90;;;;;;5036395;28;20488;-80
2022/02/06 07:26:49;;;;;;;0.60;0.60;;;6.00;99.90;;;;;;5036901;28;20459;-80
2022/02/06 07:29:18;;;;;;;0.70;0.70;;;5.80;99.90;;;;;;5064229;28;20936;-80
2022/02/06 07:31:48;;;;;;;2.10;0.50;;;6.00;99.90;;;;;;5027298;28;20457;-80
2022/02/06 07:34:16;;;;;;;1.77;0.60;;;5.90;99.90;;;;;;5028837;28;20977;-80
2022/02/06 07:36:44;;;;;;;1.93;0.80;;;6.00;99.90;;;;;;5030439;28;20543;-80
2022/02/06 07:39:13;;;;;;;2.70;0.90;;;6.00;99.90;;;;;;5065091;28;20476;-79
2022/02/06 07:41:41;;;;;;;1.20;0.70;;;6.00;99.90;;;;;;5038566;28;20476;-80
2022/02/06 07:44:10;;;;;;;0.80;0.70;;;6.10;99.90;;;;;;5032770;28;20468;-81
2022/02/06 07:46:44;;;;;;;2.50;0.60;;;6.00;99.90;;;;;;5035106;28;21112;-80
2022/02/06 07:49:15;;;;;;;2.33;0.73;;;5.90;99.90;;;;;;5025219;28;20565;-80
2022/02/06 07:51:44;;;;;;;1.80;0.83;;;5.80;99.90;;;;;;5028305;28;20484;-80
2022/02/06 07:54:12;;;;;;;4.30;0.83;;;5.90;99.90;;;;;;5031369;28;20457;-80
2022/02/06 07:56:40;;;;;;;6.23;1.33;;;5.90;99.90;;;;;;5025288;28;20458;-80
2022/02/06 07:59:09;;;;;;;0.87;0.63;;;6.00;99.90;;;;;;5029492;28;20467;-80
2022/02/06 08:01:37;;;;;;;1.50;0.80;;;5.90;99.90;;;;;;5027785;28;20550;-79
2022/02/06 08:04:07;;;;;;;2.20;0.70;;;6.00;99.90;;;;;;5023362;28;20890;-79
2022/02/06 08:06:37;;;;;;;2.77;0.70;;;6.10;99.90;;;;;;5023128;28;20548;-79
2022/02/06 08:09:05;;;;;;;4.03;1.60;;;6.00;99.90;;;;;;5028345;28;20532;-79
2022/02/06 08:11:44;;;;;;;7.77;1.20;;;6.00;99.90;;;;;;5018274;28;20458;-80
2022/02/06 08:14:48;;;;;;;1.52;0.50;;;5.60;99.90;;;;;;5022032;28;20453;-79
2022/02/06 08:17:02;;;;;;;2.00;0.83;;;5.60;99.90;;;;;;5020004;28;20407;-80
2022/02/06 08:19:31;;;;;;;1.17;0.60;;;5.90;99.90;;;;;;5025517;28;22153;-79
2022/02/06 08:22:00;;;;;;;1.03;0.90;;;5.80;99.90;;;;;;5026125;28;20461;-78
2022/02/06 08:24:29;;;;;;;2.13;0.80;;;5.80;99.90;;;;;;5023074;28;20480;-81
2022/02/06 08:26:57;;;;;;;2.60;0.70;;;5.90;99.90;;;;;;5028767;28;20517;-80
2022/02/06 08:29:25;;;;;;;3.13;0.87;;;6.10;99.90;;;;;;5022562;28;20530;-81
2022/02/06 08:31:54;;;;;;;7.27;1.00;;;6.40;99.90;;;;;;5059862;28;20486;-79
2022/02/06 08:34:22;;;;;;;4.10;0.83;;;6.00;99.90;;;;;;5025567;28;20803;-79
2022/02/06 08:36:51;;;;;;;7.73;1.30;;;6.00;99.90;;;;;;5062570;28;20675;-80
2022/02/06 08:39:21;;;;;;;2.73;0.87;;;6.10;99.90;;;;;;5030188;28;20478;-81
2022/02/06 08:41:49;;;;;;;0.80;0.70;;;6.40;99.90;;;;;;5033261;28;20447;-79
2022/02/06 08:44:21;;;;;;;4.60;1.00;;;6.50;99.90;;;;;;5035458;28;20309;-80
2022/02/06 08:46:49;;;;;;;1.20;0.70;;;6.40;99.90;;;;;;5028798;28;20487;-79
2022/02/06 08:49:18;;;;;;;5.57;1.00;;;6.40;99.90;;;;;;5026362;28;20487;-78
2022/02/06 08:51:46;;;;;;;0.98;0.80;;;6.50;99.90;;;;;;5024990;28;20451;-79
2022/02/06 08:54:15;;;;;;;2.17;0.83;;;6.40;99.90;;;;;;5031275;28;20199;-79
2022/02/06 08:57:13;;;;;;;2.70;0.80;;;6.50;99.90;;;;;;5025077;28;22585;-80
2022/02/06 08:59:42;;;;;;;4.03;1.00;;;6.60;99.90;;;;;;5022250;28;20476;-79
2022/02/06 09:02:10;;;;;;;1.27;1.17;;;6.50;99.90;;;;;;5027382;28;20456;-78
2022/02/06 09:04:38;;;;;;;1.60;1.00;;;6.30;99.90;;;;;;5029518;28;20483;-79
2022/02/06 09:07:08;;;;;;;0.97;0.80;;;6.30;99.90;;;;;;5013899;28;21013;-79
2022/02/06 09:09:41;;;;;;;2.77;1.00;;;6.30;99.90;;;;;;5023698;28;20999;-79
2022/02/06 09:12:12;;;;;;;3.93;1.10;;;6.40;99.90;;;;;;5025902;28;20943;-79
2022/02/06 09:14:41;;;;;;;10.60;1.07;;;6.40;99.90;;;;;;5063405;28;20516;-78
2022/02/06 09:17:12;;;;;;;3.00;0.77;;;6.70;99.90;;;;;;5024332;28;20549;-79
2022/02/06 09:19:41;;;;;;;4.30;0.80;;;6.70;99.90;;;;;;5017327;28;20469;-79
2022/02/06 09:22:13;;;;;;;0.70;0.70;;;6.50;99.90;;;;;;5058138;28;21002;-79
2022/02/06 09:24:42;;;;;;;0.87;0.60;;;6.30;99.90;;;;;;5021300;28;20839;-78
2022/02/06 09:27:12;;;;;;;1.33;0.50;;;6.30;99.90;;;;;;5015808;28;20503;-78
2022/02/06 09:29:42;;;;;;;2.30;0.80;;;6.80;99.90;;;;;;5041806;28;20472;-79
2022/02/06 09:37:28;;;;;;;1.10;0.60;;;6.60;99.90;;;;;;5035485;28;20452;-78
2022/02/06 09:39:57;;;;;;;3.33;0.70;;;6.60;99.90;;;;;;5028967;28;20472;-78
2022/02/06 09:42:29;;;;;;;3.00;0.60;;;6.50;99.90;;;;;;5022972;28;20526;-79
2022/02/06 09:44:59;;;;;;;0.70;0.63;;;6.40;99.90;;;;;;5024863;28;20564;-78
2022/02/06 09:47:30;;;;;;;0.90;0.80;;;6.40;99.90;;;;;;5023402;28;21034;-79
2022/02/06 09:50:02;;;;;;;1.23;0.77;;;6.50;99.90;;;;;;5038132;28;20551;-78
2022/02/06 09:52:31;;;;;;;1.10;0.50;;;6.60;99.90;;;;;;5031227;28;20460;-78
2022/02/06 09:55:04;;;;;;;1.30;0.70;;;6.80;99.90;;;;;;5027111;28;20985;-78
2022/02/06 09:57:49;;;;;;;0.60;0.60;;;6.80;99.90;;;;;;5060034;28;20815;-78
2022/02/06 10:00:19;;;;;;;0.70;0.60;;;6.70;99.90;;;;;;5024910;28;20480;-79
2022/02/06 10:02:51;;;;;;;5.97;0.70;;;6.70;99.90;;;;;;5034851;28;20584;-79
2022/02/06 10:05:21;;;;;;;1.30;0.70;;;6.70;99.90;;;;;;5027215;28;20483;-78
2022/02/06 10:08:04;;;;;;;3.30;0.70;;;6.70;99.90;;;;;;5019267;28;20449;-77
2022/02/06 10:10:34;;;;;;;2.80;0.70;;;6.80;99.90;;;;;;5027560;28;20460;-78
2022/02/06 10:13:05;;;;;;;1.70;0.60;;;6.60;99.90;;;;;;5023726;28;20464;-78
2022/02/06 10:15:37;;;;;;;2.53;0.70;;;6.60;99.90;;;;;;5026582;28;20526;-78
2022/02/06 10:18:06;;;;;;;0.60;0.60;;;6.70;99.90;;;;;;5025685;28;21005;-78
2022/02/06 10:20:45;;;;;;;0.77;0.60;;;6.90;99.90;;;;;;5027966;28;20448;-78
2022/02/06 10:23:27;;;;;;;1.42;0.80;;;7.00;99.90;;;;;;5053510;28;20543;-77
2022/02/06 10:26:05;;;;;;;1.07;0.60;;;6.90;99.90;;;;;;5028589;28;20270;-76
2022/02/06 10:28:41;;;;;;;1.73;0.70;;;7.00;99.90;;;;;;5021619;28;20472;-77
2022/02/06 10:31:10;;;;;;;1.63;0.50;;;7.00;99.90;;;;;;5025675;28;20991;-76
2022/02/06 10:33:47;;;;;;;1.07;0.60;;;7.20;99.90;;;;;;5040977;28;20448;-77
2022/02/06 10:36:23;;;;;;;3.00;0.80;;;7.20;99.90;;;;;;5040541;28;20473;-77
2022/02/06 10:39:02;;;;;;;2.03;0.90;;;7.30;99.90;;;;;;5024147;28;20531;-78
2022/02/06 10:41:31;;;;;;;5.80;0.70;;;7.40;99.90;;;;;;5026317;28;20450;-78
2022/02/06 10:44:04;;;;;;;2.20;0.60;;;7.60;99.90;;;;;;5042955;28;20458;-77
2022/02/06 10:46:35;;;;;;;1.20;0.57;;;7.60;99.90;;;;;;5010070;28;20480;-78
2022/02/06 10:49:12;;;;;;;4.70;0.60;;;7.40;99.90;;;;;;5018260;28;20516;-76
2022/02/06 10:51:43;;;;;;;1.27;0.90;;;7.20;99.90;;;;;;5041663;28;20457;-78
2022/02/06 10:54:15;;;;;;;0.60;0.50;;;7.40;99.90;;;;;;5025627;28;20523;-77
2022/02/06 10:57:00;;;;;;;0.93;0.90;;;7.70;99.90;;;;;;5028283;28;20445;-77
2022/02/06 10:59:37;;;;;;;1.17;0.50;;;7.90;99.90;;;;;;5027560;28;20482;-77
2022/02/06 11:02:07;;;;;;;0.90;0.70;;;7.80;99.90;;;;;;5024736;28;20462;-77
2022/02/06 11:04:44;;;;;;;3.00;0.80;;;8.00;99.90;;;;;;5019569;28;20488;-79
2022/02/06 11:07:16;;;;;;;2.10;0.80;;;8.00;99.90;;;;;;5023922;28;20513;-78
2022/02/06 11:09:44;;;;;;;1.63;0.70;;;7.80;99.90;;;;;;5024370;28;20527;-77
2022/02/06 11:12:15;;;;;;;0.60;0.60;;;7.80;99.90;;;;;;5024912;28;20469;-77
2022/02/06 11:14:47;;;;;;;1.33;1.10;;;7.60;99.90;;;;;;5023028;28;20472;-78
2022/02/06 11:17:20;;;;;;;2.10;0.97;;;7.70;99.90;;;;;;5021063;28;20458;-79
2022/02/06 11:20:03;;;;;;;0.60;0.50;;;7.90;99.90;;;;;;5024253;28;20507;-79
2022/02/06 11:22:32;;;;;;;0.80;0.50;;;8.00;99.90;;;;;;5022130;28;20455;-79
2022/02/06 11:25:04;;;;;;;0.70;0.70;;;7.90;99.90;;;;;;5021967;28;20461;-78
2022/02/06 11:27:34;;;;;;;0.70;0.70;;;7.70;99.90;;;;;;5026729;28;20477;-79
2022/02/06 11:30:05;;;;;;;1.13;0.60;;;7.50;99.90;;;;;;5022427;28;20542;-79
2022/02/06 11:32:36;;;;;;;0.60;0.60;;;7.60;99.90;;;;;;5023737;28;20519;-80
2022/02/06 11:35:10;;;;;;;0.80;0.80;;;7.50;99.90;;;;;;5025786;28;20947;-79
2022/02/06 11:43:49;;;;;;;0.50;0.50;;;7.40;99.90;;;;;;5024099;28;20512;-79
2022/02/06 11:46:24;;;;;;;1.57;0.53;;;7.50;99.90;;;;;;5021154;28;20471;-80
2022/02/06 11:49:04;;;;;;;0.50;0.50;;;7.40;99.90;;;;;;5017443;28;20568;-79
2022/02/06 11:51:33;;;;;;;0.83;0.50;;;7.40;99.90;;;;;;5052294;28;21034;-79
2022/02/06 11:54:26;;;;;;;1.40;0.60;;;7.60;99.90;;;;;;5022638;28;20467;-79
2022/02/06 11:57:21;;;;;;;1.10;0.60;;;7.40;99.90;;;;;;5027953;28;20454;-79
2022/02/06 12:00:15;;;;;;;0.73;0.73;;;7.60;99.90;;;;;;5064791;28;20470;-78
2022/02/06 12:02:49;;;;;;;0.70;0.70;;;7.70;99.90;;;;;;5035310;28;20828;-79
2022/02/06 12:05:26;;;;;;;2.97;0.70;;;7.80;99.90;;;;;;5027214;28;20511;-79
2022/02/06 12:08:07;;;;;;;0.60;0.50;;;7.70;99.90;;;;;;5054410;28;20450;-78
2022/02/06 12:11:13;;;;;;;1.23;0.60;;;7.60;99.90;;;;;;5040308;28;20450;-78
2022/02/06 12:13:42;;;;;;;2.87;0.77;;;7.60;99.90;;;;;;5016439;28;20569;-78
2022/02/06 12:16:25;;;;;;;0.70;0.70;;;7.30;99.90;;;;;;5020921;28;20491;-78
2022/02/06 12:18:55;;;;;;;0.60;0.60;;;7.10;99.90;;;;;;5025393;28;20515;-79
2022/02/06 12:21:24;;;;;;;0.57;0.57;;;7.30;1.00;;;;;;5023107;28;20466;-79
2022/02/06 12:23:57;;;;;;;0.80;0.50;;;7.30;99.90;;;;;;5029848;28;20466;-79
2022/02/06 12:26:46;;;;;;;1.40;1.30;;;7.40;99.90;;;;;;5028418;28;20577;-79
2022/02/06 12:29:21;;;;;;;1.13;0.50;;;7.20;99.90;;;;;;5020005;28;20482;-78
2022/02/06 12:32:00;;;;;;;0.70;0.60;;;7.00;99.90;;;;;;5012358;28;20813;-79
2022/02/06 12:37:31;;;;;;;3.00;0.60;;;7.30;99.90;;;;;;5017358;28;20875;-76
2022/02/06 12:40:02;;;;;;;1.10;0.50;;;7.30;99.90;;;;;;5024604;28;20232;-79
2022/02/06 12:42:33;;;;;;;0.50;0.50;;;7.60;99.90;;;;;;5032026;28;20906;-79
2022/02/06 12:45:04;;;;;;;1.90;0.80;;;7.70;99.90;;;;;;5025482;28;20975;-78
2022/02/06 12:47:33;;;;;;;0.50;0.50;;;7.90;99.90;;;;;;5020602;28;20482;-78
2022/02/06 12:50:20;;;;;;;1.27;0.60;;;7.80;99.90;;;;;;5014171;28;20482;-78
2022/02/06 12:52:49;;;;;;;3.00;0.50;;;7.80;99.90;;;;;;5024682;28;20471;-77
2022/02/06 12:55:25;;;;;;;4.40;0.70;;;7.80;99.90;;;;;;5019124;28;20451;-77
2022/02/06 12:57:55;;;;;;;0.73;0.60;;;7.80;99.90;;;;;;5018470;28;20529;-77
2022/02/06 13:00:35;;;;;;;2.13;0.60;;;7.70;99.90;;;;;;5019332;28;20968;-77
2022/02/06 13:03:28;;;;;;;0.87;0.60;;;7.70;99.90;;;;;;5019546;28;20590;-79
2022/02/06 13:06:02;;;;;;;0.60;0.50;;;7.80;99.90;;;;;;5033764;28;20474;-79
2022/02/06 13:08:32;;;;;;;0.40;0.40;;;7.70;99.90;;;;;;5057024;28;21012;-79
2022/02/06 13:11:04;;;;;;;0.70;0.50;;;7.70;99.90;;;;;;5026156;28;21056;-78
2022/02/06 13:13:39;;;;;;;0.70;0.70;;;7.80;99.90;;;;;;5030716;28;20799;-79
2022/02/06 13:16:38;;;;;;;1.33;0.50;;;7.90;99.90;;;;;;5024305;28;21252;-79
2022/02/06 13:27:46;;;;;;;0.50;0.50;;;7.60;99.90;;;;;;5020654;28;20482;-78
2022/02/06 13:30:24;;;;;;;2.30;0.50;;;7.50;99.90;;;;;;5024665;28;20475;-80
2022/02/06 13:33:08;;;;;;;1.03;0.50;;;7.50;99.90;;;;;;5024476;28;20499;-80
2022/02/06 13:35:42;;;;;;;0.40;0.40;;;7.50;99.90;;;;;;5026260;28;20956;-78
2022/02/06 13:38:17;;;;;;;1.43;0.50;;;7.40;99.90;;;;;;5019100;28;20483;-79
2022/02/06 13:40:47;;;;;;;1.50;0.80;;;7.30;1.00;;;;;;5022984;28;20582;-79
2022/02/06 13:43:19;;;;;;;0.60;0.60;;;7.50;1.00;;;;;;5059403;28;20466;-80
2022/02/06 13:45:51;;;;;;;0.90;0.60;;;7.50;1.00;;;;;;5023354;28;20459;-77
2022/02/06 13:48:20;;;;;;;0.50;0.50;;;7.50;1.00;;;;;;5028959;28;20645;-78
2022/02/06 13:50:54;;;;;;;0.40;0.40;;;7.60;1.00;;;;;;5021395;28;20553;-77
2022/02/06 13:53:26;;;;;;;1.90;0.80;;;7.50;1.00;;;;;;5039649;28;20494;-78
2022/02/06 13:56:00;;;;;;;0.50;0.50;;;7.60;1.00;;;;;;5023198;28;20534;-79
2022/02/06 13:58:29;;;;;;;1.70;0.50;;;7.40;1.00;;;;;;5025526;28;20478;-79
2022/02/06 14:01:00;;;;;;;0.40;0.40;;;7.40;1.00;;;;;;5022848;28;20462;-79
2022/02/06 14:03:42;;;;;;;0.73;0.63;;;7.60;1.00;;;;;;5059274;28;20551;-79
2022/02/06 14:06:17;;;;;;;1.27;0.77;;;7.30;1.00;;;;;;5036589;28;20478;-77
2022/02/06 14:09:15;;;;;;;0.50;0.50;;;7.30;52.10;;;;;;5052774;28;20477;-80
2022/02/06 14:12:01;;;;;;;0.50;0.40;;;7.30;1.00;;;;;;5028139;28;20477;-79
2022/02/06 14:14:31;;;;;;;0.60;0.60;;;7.30;77.70;;;;;;5025126;28;20551;-79
2022/02/06 14:17:21;;;;;;;0.60;0.60;;;7.30;99.90;;;;;;5027320;28;20456;-80
2022/02/06 14:19:51;;;;;;;1.40;0.40;;;7.30;50.80;;;;;;5023868;28;20552;-78
2022/02/06 14:22:28;;;;;;;0.40;0.40;;;7.20;99.90;;;;;;5020916;28;20887;-78
2022/02/06 14:25:01;;;;;;;0.50;0.50;;;7.30;99.90;;;;;;5022575;28;21154;-78
2022/02/06 14:27:32;;;;;;;0.60;0.47;;;7.40;99.90;;;;;;5020575;28;20478;-77
2022/02/06 14:30:11;;;;;;;0.60;0.60;;;7.20;99.90;;;;;;5022960;28;20482;-78
2022/02/06 14:33:01;;;;;;;1.10;0.60;;;7.50;99.90;;;;;;5026822;28;20968;-78
2022/02/06 14:35:45;;;;;;;1.00;0.60;;;7.40;99.90;;;;;;5020767;28;20796;-78
2022/02/06 14:38:22;;;;;;;0.73;0.50;;;7.40;99.90;;;;;;5025999;28;20916;-78
2022/02/06 14:41:04;;;;;;;0.53;0.47;;;7.40;94.00;;;;;;5023476;28;20464;-77
2022/02/06 14:43:37;;;;;;;2.70;0.67;;;7.40;99.90;;;;;;5015591;28;20554;-78
2022/02/06 14:46:08;;;;;;;0.63;0.63;;;7.30;99.90;;;;;;5039089;28;20467;-78
2022/02/06 14:48:37;;;;;;;1.00;0.40;;;7.30;99.90;;;;;;5056035;28;20487;-78
2022/02/06 14:51:12;;;;;;;0.40;0.40;;;7.30;99.90;;;;;;5026512;28;20480;-78
2022/02/06 14:53:41;;;;;;;0.40;0.40;;;7.40;99.90;;;;;;5025561;28;20462;-78
2022/02/06 14:56:12;;;;;;;0.70;0.40;;;7.40;99.90;;;;;;5023825;28;20444;-78
2022/02/06 14:58:41;;;;;;;0.43;0.43;;;7.30;99.90;;;;;;5023423;28;20531;-80
2022/02/06 15:01:11;;;;;;;2.97;0.47;;;7.10;99.90;;;;;;5052929;28;21922;-79
2022/02/06 15:03:39;;;;;;;0.40;0.40;;;7.00;1.00;;;;;;5034876;28;20455;-77
2022/02/06 15:06:08;;;;;;;0.90;0.50;;;6.90;43.60;;;;;;5023329;28;21078;-79
2022/02/06 15:08:36;;;;;;;0.60;0.43;;;6.90;85.30;;;;;;5033678;28;20499;-79
2022/02/06 15:11:05;;;;;;;0.40;0.40;;;7.00;10.30;;;;;;5026732;28;20464;-79
2022/02/06 15:13:35;;;;;;;0.60;0.60;;;6.80;99.90;;;;;;5027533;28;20530;-79
2022/02/06 15:16:08;;;;;;;0.40;0.40;;;6.90;99.90;;;;;;5026640;28;20495;-79
2022/02/06 15:18:39;;;;;;;0.50;0.50;;;7.00;3.90;;;;;;5023753;28;20544;-79